Time;durP1;ratioP1;P1;durP2;ratioP2;P2;SDS_P1;SDS_P2;PMS_P1;PMS_P2;Temp;Humidity;BMP_temperature;BMP_pressure;BME280_temperature;BME280_humidity;BME280_pressure;Samples;Min_cycle;Max_cycle;Signal;HPM_P1;HPM_P2
2024/01/20 00:01:40;;;;;;;40.28;13.10;;;;;;;-2.75;61.83;98148.38;5146401;23;20071;-87
2024/01/20 00:04:05;;;;;;;33.38;13.18;;;;;;;-2.72;61.59;98168.50;4858435;29;20032;-87
2024/01/20 00:06:31;;;;;;;22.65;9.57;;;;;;;-2.74;61.69;98186.47;4865239;29;20035;-86
2024/01/20 00:08:56;;;;;;;27.67;11.68;;;;;;;-2.82;61.29;98194.00;4883109;29;20654;-87
2024/01/20 00:11:22;;;;;;;37.10;15.23;;;;;;;-3.04;61.03;98172.13;4858647;29;20035;-87
2024/01/20 00:13:47;;;;;;;40.08;16.27;;;;;;;-2.97;61.34;98195.31;4856015;29;20044;-87
2024/01/20 00:16:12;;;;;;;31.45;13.70;;;;;;;-3.06;61.89;98202.03;4858809;29;20428;-86
2024/01/20 00:18:38;;;;;;;92.47;34.33;;;;;;;-3.29;62.24;98169.16;4856855;29;21305;-86
2024/01/20 00:21:03;;;;;;;148.43;53.92;;;;;;;-3.25;61.51;98211.22;4858768;29;20527;-86
2024/01/20 00:23:29;;;;;;;80.78;32.75;;;;;;;-3.39;62.18;98186.16;4859689;29;20037;-86
2024/01/20 00:25:54;;;;;;;36.33;15.73;;;;;;;-3.49;61.98;98164.94;4859713;29;20674;-87
2024/01/20 00:28:20;;;;;;;48.28;18.75;;;;;;;-3.41;61.43;98180.34;4859276;29;20036;-87
2024/01/20 00:30:45;;;;;;;34.28;14.95;;;;;;;-3.35;60.79;98210.41;4870825;29;20025;-86
2024/01/20 00:33:11;;;;;;;25.30;10.75;;;;;;;-3.47;60.88;98206.34;4867795;29;20140;-87
2024/01/20 00:35:42;;;;;;;15.45;7.68;;;;;;;-3.63;59.57;98206.84;4872159;29;20077;-87
2024/01/20 00:38:08;;;;;;;14.88;7.45;;;;;;;-3.69;60.63;98213.22;4851991;29;20094;-86
2024/01/20 00:40:33;;;;;;;13.13;6.47;;;;;;;-3.77;60.20;98190.97;4868799;29;20056;-87
2024/01/20 00:42:59;;;;;;;14.38;7.07;;;;;;;-3.82;60.05;98179.56;4868207;29;20579;-86
2024/01/20 00:45:24;;;;;;;16.38;6.25;;;;;;;-3.67;60.40;98196.09;4873882;29;20041;-87
2024/01/20 00:47:50;;;;;;;17.70;7.15;;;;;;;-3.68;59.59;98197.03;4855710;29;20048;-87
2024/01/20 00:50:15;;;;;;;13.93;6.63;;;;;;;-4.04;59.36;98150.84;4871200;29;20032;-86
2024/01/20 00:52:40;;;;;;;14.13;5.40;;;;;;;-3.99;59.50;98170.81;4872326;29;20149;-86
2024/01/20 00:55:06;;;;;;;14.32;6.10;;;;;;;-3.83;59.99;98178.75;4871674;29;20474;-86
2024/01/20 00:57:31;;;;;;;10.90;5.32;;;;;;;-3.86;59.37;98173.13;4871577;29;20470;-86
2024/01/20 00:59:57;;;;;;;13.45;6.28;;;;;;;-4.08;59.71;98141.03;4869927;29;20064;-87
2024/01/20 01:02:24;;;;;;;11.98;5.32;;;;;;;-3.83;60.32;98178.75;4873734;29;20055;-87
2024/01/20 01:04:49;;;;;;;13.10;4.70;;;;;;;-4.00;60.13;98156.47;4868861;29;20040;-87
2024/01/20 01:07:15;;;;;;;11.77;5.72;;;;;;;-4.00;59.42;98172.53;4886297;29;20051;-86
2024/01/20 01:09:40;;;;;;;12.85;5.57;;;;;;;-3.95;59.48;98185.66;4857771;29;21226;-86
2024/01/20 01:12:05;;;;;;;12.93;6.75;;;;;;;-4.00;59.63;98187.78;4884190;29;20129;-88
2024/01/20 01:14:31;;;;;;;18.17;7.65;;;;;;;-4.06;59.51;98184.94;4883442;29;20144;-88
2024/01/20 01:16:56;;;;;;;13.55;5.68;;;;;;;-3.99;59.19;98188.63;4885130;29;20121;-89
2024/01/20 01:19:23;;;;;;;12.63;5.70;;;;;;;-3.98;59.88;98198.63;4883764;29;20068;-88
2024/01/20 01:21:48;;;;;;;13.50;5.53;;;;;;;-3.86;60.90;98213.84;4897305;29;20045;-90
2024/01/20 01:24:13;;;;;;;11.35;5.80;;;;;;;-3.81;60.86;98196.44;4880644;29;20044;-88
2024/01/20 01:26:39;;;;;;;15.07;6.53;;;;;;;-3.89;60.73;98173.38;4888741;29;20829;-87
2024/01/20 01:29:05;;;;;;;14.60;5.95;;;;;;;-3.59;60.71;98218.38;4903650;29;20127;-88
2024/01/20 01:31:30;;;;;;;17.00;7.35;;;;;;;-3.54;60.18;98225.63;4887400;29;20033;-89
2024/01/20 01:33:55;;;;;;;25.63;8.52;;;;;;;-3.78;60.49;98180.94;4900741;29;20272;-89
2024/01/20 01:36:21;;;;;;;18.90;8.93;;;;;;;-3.75;59.02;98203.59;4867314;29;20068;-89
2024/01/20 01:38:46;;;;;;;16.85;7.75;;;;;;;-3.76;59.06;98204.50;4919897;29;20106;-89
2024/01/20 01:41:12;;;;;;;15.40;6.40;;;;;;;-3.73;59.47;98216.19;4889499;29;20049;-89
2024/01/20 01:43:37;;;;;;;108.78;36.20;;;;;;;-3.90;60.23;98202.31;4891641;29;20036;-89
2024/01/20 01:46:03;;;;;;;71.55;24.27;;;;;;;-3.72;60.05;98212.69;4901318;29;20088;-90
2024/01/20 01:48:28;;;;;;;40.70;13.77;;;;;;;-3.64;59.94;98223.84;4894275;29;20032;-89
2024/01/20 01:50:56;;;;;;;23.55;8.40;;;;;;;-3.55;60.74;98222.25;4892233;29;20040;-90
2024/01/20 01:53:21;;;;;;;30.63;12.43;;;;;;;-3.73;60.68;98206.00;4890721;29;20049;-90
2024/01/20 01:55:47;;;;;;;32.70;11.10;;;;;;;-3.57;61.13;98232.56;4898914;29;20033;-89
2024/01/20 01:58:12;;;;;;;30.67;13.25;;;;;;;-3.54;60.42;98228.16;4903943;29;20043;-88
2024/01/20 02:00:38;;;;;;;28.30;11.05;;;;;;;-3.61;60.30;98221.03;4869730;29;20103;-89
2024/01/20 02:03:04;;;;;;;21.60;9.65;;;;;;;-3.78;60.59;98211.47;4904780;29;20047;-89
2024/01/20 02:05:29;;;;;;;17.67;7.50;;;;;;;-3.75;59.68;98226.47;4888910;29;20131;-88
2024/01/20 02:07:54;;;;;;;16.80;6.65;;;;;;;-3.93;60.95;98195.72;4918502;29;20627;-88
2024/01/20 02:10:21;;;;;;;15.50;6.88;;;;;;;-3.80;60.53;98228.59;4896604;29;20055;-89
2024/01/20 02:12:46;;;;;;;17.42;7.13;;;;;;;-3.84;60.24;98214.50;4907944;29;20096;-89
2024/01/20 02:15:12;;;;;;;16.00;6.45;;;;;;;-4.09;60.45;98193.66;4864026;29;20029;-90
2024/01/20 02:17:49;;;;;;;16.30;7.45;;;;;;;-3.87;59.97;98219.84;4889947;29;20040;-89
2024/01/20 02:20:14;;;;;;;17.73;8.00;;;;;;;-4.26;59.81;98181.50;4889400;29;20040;-90
2024/01/20 02:22:39;;;;;;;13.88;6.32;;;;;;;-4.09;60.07;98219.06;4892635;29;20123;-86
2024/01/20 02:25:05;;;;;;;15.27;7.57;;;;;;;-4.18;59.62;98224.91;4887894;29;20500;-85
2024/01/20 02:27:30;;;;;;;15.00;6.82;;;;;;;-4.20;59.97;98214.03;4875736;29;20680;-86
2024/01/20 02:29:55;;;;;;;21.33;8.88;;;;;;;-4.00;58.80;98236.13;4890132;29;20240;-86
2024/01/20 02:32:21;;;;;;;29.42;10.95;;;;;;;-4.08;58.35;98232.59;4846525;29;20482;-86
2024/01/20 02:34:46;;;;;;;22.67;8.93;;;;;;;-4.11;57.27;98243.84;4858199;29;20316;-85
2024/01/20 02:37:11;;;;;;;21.85;7.65;;;;;;;-4.16;57.21;98238.31;4892547;29;20024;-85
2024/01/20 02:39:37;;;;;;;25.55;9.70;;;;;;;-4.21;57.63;98236.13;4890440;29;20139;-85
2024/01/20 02:42:02;;;;;;;27.05;10.30;;;;;;;-4.26;57.22;98237.44;4855907;29;20131;-86
2024/01/20 02:44:28;;;;;;;19.20;7.13;;;;;;;-4.57;58.13;98214.47;4855988;29;20068;-86
2024/01/20 02:46:53;;;;;;;17.48;6.97;;;;;;;-4.57;58.03;98239.91;4881597;29;20037;-85
2024/01/20 02:49:19;;;;;;;15.85;6.80;;;;;;;-4.66;57.60;98240.59;4900319;29;20099;-86
2024/01/20 02:51:44;;;;;;;15.60;6.00;;;;;;;-4.72;57.87;98239.38;4900789;29;20101;-85
2024/01/20 02:54:10;;;;;;;14.45;6.78;;;;;;;-4.75;58.29;98232.78;4893551;29;20121;-85
2024/01/20 02:56:35;;;;;;;11.27;6.18;;;;;;;-4.70;57.77;98235.75;4861640;29;20080;-85
2024/01/20 02:59:01;;;;;;;14.73;6.57;;;;;;;-4.61;57.10;98246.13;4854018;29;20406;-86
2024/01/20 03:01:27;;;;;;;21.67;7.30;;;;;;;-4.75;56.85;98220.06;4876346;29;20045;-89
2024/01/20 03:03:52;;;;;;;16.25;8.05;;;;;;;-4.62;57.16;98239.47;4881730;29;20036;-89
2024/01/20 03:06:17;;;;;;;20.83;7.95;;;;;;;-4.84;56.97;98213.19;4916937;29;20760;-88
2024/01/20 03:08:43;;;;;;;22.30;8.35;;;;;;;-4.81;57.29;98222.31;4900196;29;20060;-89
2024/01/20 03:11:08;;;;;;;18.17;6.50;;;;;;;-4.94;57.57;98212.31;4875079;29;20125;-89
2024/01/20 03:13:34;;;;;;;26.40;8.57;;;;;;;-4.94;57.72;98237.69;4857766;29;20442;-89
2024/01/20 03:15:59;;;;;;;23.25;9.50;;;;;;;-5.14;58.51;98227.38;4890143;29;20334;-88
2024/01/20 03:18:25;;;;;;;24.02;10.27;;;;;;;-5.14;58.56;98217.22;4903824;29;20036;-89
2024/01/20 03:20:50;;;;;;;21.75;9.07;;;;;;;-5.03;57.96;98243.50;4919235;29;20029;-90
2024/01/20 03:23:16;;;;;;;17.63;7.72;;;;;;;-5.18;58.02;98240.41;4879836;29;20033;-89
2024/01/20 03:25:41;;;;;;;14.48;6.75;;;;;;;-5.28;58.47;98233.50;4906955;29;20067;-89
2024/01/20 03:28:06;;;;;;;13.48;5.03;;;;;;;-5.36;58.51;98218.06;4863469;29;20115;-89
2024/01/20 03:30:32;;;;;;;15.50;6.05;;;;;;;-5.16;57.79;98229.19;4885434;29;20047;-88
2024/01/20 03:32:57;;;;;;;13.75;6.72;;;;;;;-5.27;58.12;98224.16;4892472;29;20556;-85
2024/01/20 03:35:23;;;;;;;14.57;6.68;;;;;;;-5.00;57.83;98245.78;4892257;29;20041;-85
2024/01/20 03:37:48;;;;;;;16.48;8.52;;;;;;;-5.01;57.77;98251.81;4881138;29;20223;-85
2024/01/20 03:40:14;;;;;;;15.25;5.90;;;;;;;-5.04;57.55;98244.41;4887929;29;20037;-85
2024/01/20 03:42:39;;;;;;;13.23;5.85;;;;;;;-4.98;56.77;98249.84;4900807;29;20064;-85
2024/01/20 03:45:05;;;;;;;13.50;5.38;;;;;;;-5.14;56.59;98227.38;4899202;29;20060;-85
2024/01/20 03:47:31;;;;;;;12.48;5.15;;;;;;;-5.11;56.29;98249.16;4880644;29;20084;-86
2024/01/20 03:49:56;;;;;;;12.60;4.80;;;;;;;-5.36;56.75;98250.25;4885565;29;20398;-85
2024/01/20 03:52:21;;;;;;;14.27;5.72;;;;;;;-5.53;57.96;98241.38;4896789;29;20544;-85
2024/01/20 03:54:47;;;;;;;17.60;7.13;;;;;;;-5.52;58.43;98253.13;4888591;29;20107;-85
2024/01/20 03:57:12;;;;;;;12.38;5.40;;;;;;;-5.39;59.49;98263.16;4892660;29;20041;-85
2024/01/20 03:59:38;;;;;;;16.05;6.00;;;;;;;-5.46;59.19;98256.00;4881763;29;20041;-85
2024/01/20 04:02:03;;;;;;;11.05;4.85;;;;;;;-5.47;59.66;98251.88;4880374;29;21252;-86
2024/01/20 04:04:29;;;;;;;16.50;5.97;;;;;;;-5.46;58.04;98262.81;4887453;29;20350;-85
2024/01/20 04:06:54;;;;;;;14.02;6.40;;;;;;;-5.47;58.15;98267.09;4878038;29;20629;-85
2024/01/20 04:09:19;;;;;;;9.30;4.57;;;;;;;-5.64;58.77;98244.69;4882746;29;20445;-86
2024/01/20 04:11:45;;;;;;;18.00;5.90;;;;;;;-5.45;57.99;98277.09;4884073;29;20060;-85
2024/01/20 04:14:10;;;;;;;17.85;6.43;;;;;;;-5.48;58.91;98284.97;4902326;29;20052;-85
2024/01/20 04:16:36;;;;;;;20.33;6.82;;;;;;;-5.65;58.30;98263.41;4863965;29;20092;-85
2024/01/20 04:19:02;;;;;;;18.98;6.65;;;;;;;-5.52;58.31;98286.94;4882700;29;20025;-86
2024/01/20 04:21:27;;;;;;;18.23;7.82;;;;;;;-5.73;57.86;98260.63;4888752;29;20288;-85
2024/01/20 04:23:52;;;;;;;16.27;6.32;;;;;;;-5.65;58.69;98276.09;4853765;29;20033;-85
2024/01/20 04:26:18;;;;;;;18.88;6.80;;;;;;;-5.81;57.44;98257.84;4887698;29;20510;-86
2024/01/20 04:28:43;;;;;;;20.33;7.22;;;;;;;-5.85;58.82;98268.19;4906783;29;20036;-86
2024/01/20 04:31:08;;;;;;;16.17;6.43;;;;;;;-5.81;58.86;98275.59;4867984;29;20068;-85
2024/01/20 04:33:39;;;;;;;16.25;6.20;;;;;;;-5.68;58.67;98296.59;4867971;29;20127;-85
2024/01/20 04:36:05;;;;;;;16.67;6.70;;;;;;;-5.72;58.05;98297.75;4870211;29;20029;-85
2024/01/20 04:38:31;;;;;;;15.20;5.78;;;;;;;-5.89;57.67;98287.13;4900255;29;20036;-86
2024/01/20 04:40:57;;;;;;;14.65;6.70;;;;;;;-5.92;56.93;98273.84;4871803;29;20033;-85
2024/01/20 04:43:22;;;;;;;15.93;8.00;;;;;;;-5.90;56.59;98284.69;4865622;29;20047;-85
2024/01/20 04:45:48;;;;;;;18.65;8.45;;;;;;;-6.03;57.58;98294.97;4881983;29;20151;-85
2024/01/20 04:48:13;;;;;;;18.33;7.07;;;;;;;-6.12;58.45;98280.41;4890831;29;20033;-85
2024/01/20 04:50:39;;;;;;;18.98;7.80;;;;;;;-6.11;58.53;98292.16;4884822;29;20037;-85
2024/01/20 04:53:05;;;;;;;18.48;7.43;;;;;;;-6.11;57.75;98304.84;4865315;29;20125;-85
2024/01/20 04:55:30;;;;;;;20.95;7.93;;;;;;;-6.20;57.94;98288.56;4848192;29;20116;-85
2024/01/20 04:57:56;;;;;;;15.32;6.25;;;;;;;-6.13;58.38;98299.88;4883656;29;20709;-85
2024/01/20 05:00:22;;;;;;;13.45;5.60;;;;;;;-6.17;57.68;98302.75;4867186;29;20025;-85
2024/01/20 05:02:47;;;;;;;16.15;6.22;;;;;;;-6.24;57.89;98290.53;4895713;29;20043;-85
2024/01/20 05:05:13;;;;;;;13.48;6.00;;;;;;;-6.19;58.08;98304.59;4898224;29;20032;-85
2024/01/20 05:07:38;;;;;;;14.07;6.20;;;;;;;-6.15;57.86;98304.25;4848169;29;20036;-85
2024/01/20 05:10:04;;;;;;;10.98;4.53;;;;;;;-6.30;57.29;98278.28;4908727;29;20041;-86
2024/01/20 05:12:29;;;;;;;15.57;5.68;;;;;;;-6.25;57.11;98295.69;4844270;29;20456;-85
2024/01/20 05:14:55;;;;;;;10.55;4.28;;;;;;;-6.13;56.75;98304.94;4875757;29;20096;-84
2024/01/20 05:17:21;;;;;;;12.23;4.90;;;;;;;-6.32;56.96;98272.53;4863804;29;20052;-85
2024/01/20 05:19:49;;;;;;;12.00;5.13;;;;;;;-6.38;56.98;98277.22;4878799;29;20434;-85
2024/01/20 05:22:16;;;;;;;8.80;4.35;;;;;;;-6.44;57.03;98286.06;4869980;29;20052;-87
2024/01/20 05:24:42;;;;;;;10.82;4.65;;;;;;;-6.29;57.10;98300.19;4910201;29;20029;-87
2024/01/20 05:27:07;;;;;;;11.77;4.10;;;;;;;-6.28;56.60;98306.84;4911484;29;20048;-87
2024/01/20 05:29:32;;;;;;;9.75;5.07;;;;;;;-6.11;55.55;98314.97;4863750;29;20037;-88
2024/01/20 05:31:58;;;;;;;11.38;5.03;;;;;;;-6.01;55.27;98313.41;4884812;29;20047;-88
2024/01/20 05:34:23;;;;;;;11.73;5.20;;;;;;;-6.16;55.44;98287.41;4894623;29;20716;-86
2024/01/20 05:36:48;;;;;;;12.00;4.90;;;;;;;-6.05;55.30;98300.13;4889294;29;20053;-87
2024/01/20 05:39:15;;;;;;;10.80;4.38;;;;;;;-5.96;55.39;98318.94;4873173;29;20044;-87
2024/01/20 05:41:40;;;;;;;12.80;4.40;;;;;;;-5.99;55.62;98331.84;4908661;29;20044;-88
2024/01/20 05:44:06;;;;;;;11.18;4.95;;;;;;;-6.12;55.89;98310.81;4896080;29;20025;-87
2024/01/20 05:46:32;;;;;;;13.35;5.57;;;;;;;-6.25;55.97;98301.56;4871014;29;20032;-87
2024/01/20 05:48:57;;;;;;;11.90;5.35;;;;;;;-6.14;55.91;98328.66;4916826;29;20032;-87
2024/01/20 05:51:23;;;;;;;11.02;5.10;;;;;;;-6.20;56.04;98334.19;4889379;29;20025;-84
2024/01/20 05:53:48;;;;;;;13.82;5.15;;;;;;;-6.24;55.83;98338.69;4897749;29;20044;-85
2024/01/20 05:56:14;;;;;;;11.75;5.05;;;;;;;-6.23;56.27;98339.47;4900564;29;20037;-85
2024/01/20 05:58:39;;;;;;;10.55;5.05;;;;;;;-6.29;56.40;98327.22;4880923;29;20085;-85
2024/01/20 06:01:05;;;;;;;11.43;5.28;;;;;;;-6.29;56.25;98328.06;4895184;29;20033;-84
2024/01/20 06:03:30;;;;;;;11.90;5.10;;;;;;;-6.16;55.83;98347.47;4887981;29;20033;-85
2024/01/20 06:05:56;;;;;;;10.68;4.40;;;;;;;-6.37;55.47;98347.22;4875982;29;20036;-85
2024/01/20 06:08:21;;;;;;;13.60;4.70;;;;;;;-6.56;56.90;98345.19;4883473;29;20064;-85
2024/01/20 06:10:46;;;;;;;10.60;4.28;;;;;;;-6.67;57.57;98351.81;4908467;29;20080;-85
2024/01/20 06:13:12;;;;;;;11.07;4.75;;;;;;;-6.63;58.29;98338.03;4876279;29;20103;-85
2024/01/20 06:15:37;;;;;;;10.77;4.20;;;;;;;-6.49;57.84;98351.47;4873169;29;20040;-85
2024/01/20 06:18:03;;;;;;;10.23;4.47;;;;;;;-6.47;57.88;98357.22;4900356;29;20033;-85
2024/01/20 06:20:29;;;;;;;11.43;5.32;;;;;;;-6.30;57.44;98359.38;4868711;29;20096;-85
2024/01/20 06:22:54;;;;;;;9.77;4.10;;;;;;;-6.42;57.53;98340.78;4866746;29;20040;-85
2024/01/20 06:25:19;;;;;;;13.05;5.55;;;;;;;-6.19;56.78;98365.41;4905263;29;20096;-85
2024/01/20 06:27:45;;;;;;;11.55;5.15;;;;;;;-6.37;56.63;98352.28;4880401;29;20123;-85
2024/01/20 06:30:11;;;;;;;11.77;4.60;;;;;;;-6.27;57.18;98379.44;4883930;29;20051;-85
2024/01/20 06:32:36;;;;;;;10.35;4.43;;;;;;;-6.41;56.83;98377.03;4891028;29;20485;-85
2024/01/20 06:35:02;;;;;;;9.75;4.13;;;;;;;-6.51;56.51;98381.13;4861833;29;20096;-85
2024/01/20 06:37:28;;;;;;;11.57;4.22;;;;;;;-6.67;57.13;98387.25;4847273;29;20041;-84
2024/01/20 06:39:53;;;;;;;14.90;4.75;;;;;;;-6.73;56.63;98390.22;4845490;29;20405;-85
2024/01/20 06:42:18;;;;;;;11.27;4.22;;;;;;;-6.84;57.42;98380.81;4893014;29;20052;-85
2024/01/20 06:44:44;;;;;;;14.15;4.65;;;;;;;-6.75;57.67;98384.47;4887325;29;20048;-85
2024/01/20 06:47:11;;;;;;;8.90;4.32;;;;;;;-6.85;58.31;98388.53;4886958;29;20041;-85
2024/01/20 06:49:40;;;;;;;13.88;4.57;;;;;;;-6.75;58.14;98394.59;4863180;29;20036;-84
2024/01/20 06:52:05;;;;;;;12.60;4.95;;;;;;;-6.91;57.95;98394.81;4892062;29;20029;-85
2024/01/20 06:54:31;;;;;;;13.13;4.43;;;;;;;-6.91;57.80;98388.94;4885245;29;20064;-84
2024/01/20 06:56:56;;;;;;;12.50;5.28;;;;;;;-6.95;57.58;98390.88;4865961;29;20032;-85
2024/01/20 06:59:21;;;;;;;10.45;3.78;;;;;;;-7.01;57.77;98392.09;4876183;29;20044;-85
2024/01/20 07:01:47;;;;;;;8.45;4.18;;;;;;;-7.05;57.31;98388.13;4909140;29;20084;-88
2024/01/20 07:04:12;;;;;;;8.77;4.40;;;;;;;-7.07;57.56;98405.16;4902162;29;20056;-88
2024/01/20 07:06:38;;;;;;;12.65;4.88;;;;;;;-7.04;57.01;98404.97;4891228;29;20036;-90
2024/01/20 07:09:05;;;;;;;8.65;3.80;;;;;;;-7.20;57.06;98406.88;4921141;29;20056;-87
2024/01/20 07:11:31;;;;;;;8.82;4.30;;;;;;;-7.18;57.62;98421.06;4912024;29;20044;-88
2024/01/20 07:13:57;;;;;;;10.63;4.95;;;;;;;-7.19;57.98;98421.16;4909924;29;20043;-88
2024/01/20 07:16:23;;;;;;;11.38;5.32;;;;;;;-7.25;57.60;98396.25;4859732;29;20040;-89
2024/01/20 07:18:48;;;;;;;17.48;7.90;;;;;;;-7.11;57.81;98413.88;4913772;29;20045;-89
2024/01/20 07:21:14;;;;;;;23.63;11.43;;;;;;;-7.17;58.66;98399.09;4882939;29;20433;-89
2024/01/20 07:23:41;;;;;;;21.67;10.52;;;;;;;-7.06;58.80;98396.66;4876876;29;20021;-89
2024/01/20 07:26:07;;;;;;;21.23;8.82;;;;;;;-7.09;58.84;98404.44;4926080;29;20115;-89
2024/01/20 07:28:32;;;;;;;18.95;8.02;;;;;;;-6.92;58.88;98427.81;4896791;29;20069;-89
2024/01/20 07:30:58;;;;;;;15.13;6.28;;;;;;;-6.97;59.29;98416.28;4904093;29;20069;-89
2024/01/20 07:33:23;;;;;;;12.10;5.63;;;;;;;-7.04;59.32;98404.97;4905730;29;20032;-89
2024/01/20 07:35:49;;;;;;;9.40;5.05;;;;;;;-6.83;59.74;98428.03;4890433;29;20037;-89
2024/01/20 07:38:14;;;;;;;10.52;5.35;;;;;;;-6.78;59.50;98428.53;4885246;29;20024;-89
2024/01/20 07:40:40;;;;;;;12.48;5.50;;;;;;;-6.72;59.60;98427.28;4901523;29;20121;-88
2024/01/20 07:43:06;;;;;;;15.13;5.43;;;;;;;-6.61;59.82;98431.66;4869085;29;20028;-88
2024/01/20 07:45:32;;;;;;;17.75;5.28;;;;;;;-6.61;59.67;98422.31;4881964;29;20232;-89
2024/01/20 07:48:01;;;;;;;16.17;6.22;;;;;;;-6.54;59.88;98424.44;4922116;29;20053;-89
2024/01/20 07:50:27;;;;;;;13.07;5.47;;;;;;;-6.60;59.49;98426.47;4862099;29;20036;-88
2024/01/20 07:52:52;;;;;;;10.00;5.25;;;;;;;-6.43;59.31;98442.22;4884313;29;20504;-89
2024/01/20 07:55:18;;;;;;;13.88;6.35;;;;;;;-6.38;58.46;98427.53;4883927;29;20041;-88
2024/01/20 07:57:43;;;;;;;9.55;5.22;;;;;;;-6.36;57.79;98430.75;4903330;29;20033;-88
2024/01/20 08:00:13;;;;;;;11.70;4.80;;;;;;;-6.59;56.81;98417.94;4883567;29;20440;-88
2024/01/20 08:02:39;;;;;;;12.85;5.50;;;;;;;-6.60;57.11;98423.13;4859994;29;20143;-89
2024/01/20 08:05:05;;;;;;;9.13;3.97;;;;;;;-6.48;57.14;98455.19;4872956;29;20067;-90
2024/01/20 08:07:31;;;;;;;9.00;4.03;;;;;;;-6.50;57.64;98454.50;4874735;29;20041;-88
2024/01/20 08:09:57;;;;;;;8.07;3.40;;;;;;;-6.63;57.33;98429.22;4892720;29;20036;-88
2024/01/20 08:12:22;;;;;;;9.85;4.22;;;;;;;-6.17;57.59;98454.81;4920489;29;20032;-89
2024/01/20 08:14:48;;;;;;;8.05;3.70;;;;;;;-6.26;58.19;98443.59;4907340;29;20037;-89
2024/01/20 08:17:14;;;;;;;8.68;4.03;;;;;;;-6.12;58.00;98457.84;4893703;29;20040;-89
2024/01/20 08:19:39;;;;;;;10.60;3.67;;;;;;;-6.01;58.59;98460.47;4885855;29;20398;-88
2024/01/20 08:22:06;;;;;;;7.32;3.53;;;;;;;-6.01;58.31;98432.56;4891072;29;20036;-89
2024/01/20 08:24:31;;;;;;;15.40;7.20;;;;;;;-5.95;58.56;98449.84;4893754;29;20057;-88
2024/01/20 08:26:57;;;;;;;16.35;7.00;;;;;;;-5.92;58.80;98441.22;4856120;29;20029;-89
2024/01/20 08:29:22;;;;;;;14.80;7.60;;;;;;;-5.81;58.91;98466.63;4908807;29;20033;-89
2024/01/20 08:31:48;;;;;;;15.95;6.95;;;;;;;-5.71;59.15;98466.78;4898509;29;20096;-87
2024/01/20 08:34:13;;;;;;;13.27;6.78;;;;;;;-5.54;58.69;98474.00;4912939;29;20057;-88
2024/01/20 08:41:49;;;;;;;11.63;4.47;;;;;;;-5.77;57.40;98447.75;5592964;23;20306;-88
2024/01/20 08:46:49;;;;;;;11.65;4.78;;;;;;;-5.69;56.93;98478.44;4971842;23;20091;-90
2024/01/20 08:49:15;;;;;;;8.75;4.38;;;;;;;-5.78;57.49;98480.81;4921240;29;20103;-88
2024/01/20 08:51:40;;;;;;;11.25;4.13;;;;;;;-5.80;59.07;98483.47;4923438;29;20035;-89
2024/01/20 08:54:06;;;;;;;9.63;4.32;;;;;;;-5.68;59.61;98490.19;4913250;29;20036;-84
2024/01/20 08:56:31;;;;;;;10.50;4.80;;;;;;;-5.72;60.55;98480.41;4915431;29;20110;-85
2024/01/20 08:58:57;;;;;;;12.50;6.20;;;;;;;-5.51;60.99;98488.19;4927968;29;20031;-84
2024/01/20 09:01:22;;;;;;;13.82;6.93;;;;;;;-5.32;61.23;98492.75;4887952;29;20036;-85
2024/01/20 09:03:48;;;;;;;22.50;10.90;;;;;;;-5.19;61.25;98496.03;4908981;29;20064;-84
2024/01/20 09:06:15;;;;;;;22.40;11.55;;;;;;;-5.44;60.77;98479.22;4892548;29;20036;-85
2024/01/20 09:08:40;;;;;;;22.63;10.68;;;;;;;-5.29;61.36;98507.78;4886083;29;20047;-84
2024/01/20 09:11:06;;;;;;;19.45;9.82;;;;;;;-5.13;61.81;98507.47;4883182;29;20036;-85
2024/01/20 09:13:31;;;;;;;22.08;9.95;;;;;;;-5.03;61.34;98492.38;4917120;29;20519;-84
2024/01/20 09:15:56;;;;;;;19.80;9.80;;;;;;;-4.99;61.90;98496.28;4907557;29;20166;-84
2024/01/20 09:18:22;;;;;;;20.73;9.38;;;;;;;-4.94;62.64;98486.59;4906835;29;20032;-84
2024/01/20 09:20:47;;;;;;;17.92;8.48;;;;;;;-4.71;62.51;98498.41;4897044;29;20039;-85
2024/01/20 09:23:12;;;;;;;22.02;10.40;;;;;;;-4.42;62.33;98513.22;4927143;29;20047;-88
2024/01/20 09:25:38;;;;;;;22.55;9.90;;;;;;;-4.41;62.55;98526.72;4924894;29;20067;-88
2024/01/20 09:28:05;;;;;;;21.95;11.02;;;;;;;-4.38;62.66;98509.50;4926731;29;20032;-87
2024/01/20 09:30:31;;;;;;;24.77;11.70;;;;;;;-4.09;62.90;98521.75;5192480;23;21641;-87
2024/01/20 09:32:56;;;;;;;22.92;11.55;;;;;;;-3.96;62.55;98522.41;5126671;23;20055;-87
2024/01/20 09:35:21;;;;;;;25.83;12.32;;;;;;;-3.90;62.83;98518.59;5222396;23;20284;-88
2024/01/20 09:37:47;;;;;;;28.08;12.43;;;;;;;-3.69;62.91;98521.19;5050886;23;20088;-87
2024/01/20 09:40:14;;;;;;;25.13;12.50;;;;;;;-3.57;62.71;98504.13;4909670;29;20035;-88
2024/01/20 09:42:40;;;;;;;18.73;9.70;;;;;;;-3.45;62.45;98515.88;4921189;29;20032;-89
2024/01/20 09:45:06;;;;;;;21.10;10.00;;;;;;;-3.36;62.56;98513.53;5215512;23;20119;-90
2024/01/20 09:52:50;;;;;;;19.30;10.07;;;;;;;-2.97;62.13;98506.19;5811828;23;20036;-87
2024/01/20 09:55:23;;;;;;;16.83;7.85;;;;;;;-2.79;62.54;98516.59;5029510;23;20036;-87
2024/01/20 09:57:52;;;;;;;20.75;9.65;;;;;;;-2.86;62.55;98506.91;4904598;29;20031;-88
2024/01/20 10:00:20;;;;;;;20.95;9.57;;;;;;;-2.75;62.57;98508.56;4903111;29;20051;-88
2024/01/20 10:02:46;;;;;;;18.70;8.80;;;;;;;-2.63;62.87;98509.31;4902810;29;20238;-88
2024/01/20 10:05:12;;;;;;;20.65;11.23;;;;;;;-2.53;62.37;98494.84;4926523;29;20122;-89
2024/01/20 10:07:38;;;;;;;17.48;9.35;;;;;;;-2.37;63.19;98504.56;4912933;29;20047;-89
2024/01/20 10:10:04;;;;;;;21.70;11.35;;;;;;;-2.04;62.68;98524.81;4912747;29;20508;-89
2024/01/20 10:25:25;;;;;;;13.20;6.55;;;;;;;-1.39;62.81;98507.28;5928746;23;19920;-91
2024/01/20 10:27:50;;;;;;;14.77;7.68;;;;;;;-1.28;63.56;98514.84;5546678;23;20444;-90
2024/01/20 10:30:17;;;;;;;12.13;6.50;;;;;;;-1.38;63.38;98484.16;4917664;29;20040;-90
2024/01/20 10:32:44;;;;;;;15.35;7.00;;;;;;;-1.12;63.82;98501.50;4878226;29;20043;-90
2024/01/20 10:35:10;;;;;;;14.10;6.70;;;;;;;-1.09;63.67;98488.44;4866180;29;20029;-89
2024/01/20 10:37:37;;;;;;;15.77;7.95;;;;;;;-1.05;62.84;98481.31;4896398;29;20060;-90
2024/01/20 10:40:05;;;;;;;16.80;8.65;;;;;;;-0.96;63.46;98488.97;4851596;29;20087;-89
2024/01/20 10:42:31;;;;;;;20.42;10.57;;;;;;;-0.94;63.27;98493.94;4883065;29;20040;-90
2024/01/20 10:45:04;;;;;;;20.88;11.40;;;;;;;-0.81;63.50;98506.41;4885437;29;20475;-90
2024/01/20 10:47:34;;;;;;;23.63;13.63;;;;;;;-1.02;64.29;98469.06;4856600;29;20069;-90
2024/01/20 10:50:05;;;;;;;24.48;14.43;;;;;;;-0.79;64.07;98499.41;4864487;29;20051;-90
2024/01/20 10:52:33;;;;;;;27.23;14.55;;;;;;;-0.82;64.12;98490.28;4887430;29;20160;-89
2024/01/20 10:55:00;;;;;;;26.60;15.80;;;;;;;-0.64;63.74;98490.34;4868338;29;20032;-88
2024/01/20 10:57:26;;;;;;;26.65;16.25;;;;;;;-0.69;64.09;98477.16;4856146;29;20157;-90
2024/01/20 10:59:52;;;;;;;26.58;15.55;;;;;;;-0.51;64.16;98479.00;5040003;23;20064;-88
2024/01/20 11:02:18;;;;;;;29.95;16.60;;;;;;;-0.40;64.01;98479.59;4917804;29;20175;-87
2024/01/20 11:04:44;;;;;;;28.83;15.90;;;;;;;-0.32;63.72;98473.78;4883303;29;20043;-88
2024/01/20 11:07:10;;;;;;;27.73;17.48;;;;;;;-0.25;64.37;98474.81;4896224;29;20948;-87
2024/01/20 11:09:35;;;;;;;27.38;16.45;;;;;;;-0.11;64.28;98481.22;4903341;29;20094;-87
2024/01/20 11:12:08;;;;;;;27.17;16.05;;;;;;;-0.11;64.91;98459.94;4919658;29;20040;-86
2024/01/20 11:14:34;;;;;;;27.58;16.42;;;;;;;0.04;65.26;98486.66;4915639;29;20131;-86
2024/01/20 11:17:11;;;;;;;32.25;18.25;;;;;;;0.24;65.14;98473.72;4866497;29;20120;-87
2024/01/20 11:19:36;;;;;;;28.15;16.45;;;;;;;0.31;65.10;98479.84;4883143;29;20040;-87
2024/01/20 11:22:02;;;;;;;31.40;16.63;;;;;;;0.50;65.26;98478.94;4902348;29;20091;-87
2024/01/20 11:24:42;;;;;;;24.67;16.58;;;;;;;0.72;64.13;98462.25;4875981;29;20028;-87
2024/01/20 11:27:07;;;;;;;30.52;18.23;;;;;;;0.64;64.97;98464.78;4897861;29;20096;-87
2024/01/20 11:29:33;;;;;;;24.98;15.93;;;;;;;0.69;64.94;98453.13;4908408;29;20040;-88
2024/01/20 11:31:59;;;;;;;24.25;11.90;;;;;;;0.81;65.59;98465.72;4894962;29;20047;-86
2024/01/20 11:34:24;;;;;;;15.30;9.07;;;;;;;0.74;65.28;98455.25;4897358;29;20044;-86
2024/01/20 11:36:52;;;;;;;14.38;7.80;;;;;;;0.81;65.48;98468.28;4915469;29;20033;-88
2024/01/20 11:39:19;;;;;;;16.52;8.20;;;;;;;0.79;65.72;98459.91;4883104;29;20044;-88
2024/01/20 11:41:46;;;;;;;14.27;7.57;;;;;;;0.93;65.81;98467.84;4897930;29;20969;-89
2024/01/20 11:44:11;;;;;;;16.52;7.90;;;;;;;0.79;65.97;98447.09;4911508;29;20029;-89